Time;durP1;ratioP1;P1;durP2;ratioP2;P2;SDS_P1;SDS_P2;PMS_P1;PMS_P2;Temp;Humidity;BMP_temperature;BMP_pressure;BME280_temperature;BME280_humidity;BME280_pressure;Samples;Min_cycle;Max_cycle;Signal;HPM_P1;HPM_P2
2021/06/02 00:01:17;;;;;;;7.65;5.28;;;;;;;;;;5074569;28;20048;-61
2021/06/02 00:03:43;;;;;;;6.65;5.13;;;;;;;;;;5074821;28;20024;-61
2021/06/02 00:06:09;;;;;;;5.93;4.93;;;;;;;;;;5074555;28;20497;-61
2021/06/02 00:08:36;;;;;;;7.38;5.05;;;;;;;;;;5074327;28;20099;-61
2021/06/02 00:11:04;;;;;;;6.60;4.82;;;;;;;;;;5074386;28;20032;-61
2021/06/02 00:13:30;;;;;;;6.63;5.60;;;;;;;;;;5074815;28;20451;-61
2021/06/02 00:15:55;;;;;;;7.40;5.40;;;;;;;;;;5074728;28;20021;-61
2021/06/02 00:18:21;;;;;;;6.28;5.22;;;;;;;;;;5074284;28;20017;-61
2021/06/02 00:20:46;;;;;;;5.90;5.00;;;;;;;;;;5073965;28;20025;-61
2021/06/02 00:23:12;;;;;;;10.15;6.55;;;;;;;;;;5073943;28;20056;-61
2021/06/02 00:25:38;;;;;;;14.02;9.77;;;;;;;;;;5073899;28;20040;-61
2021/06/02 00:28:03;;;;;;;12.18;8.55;;;;;;;;;;5074000;28;20473;-61
2021/06/02 00:30:29;;;;;;;8.65;7.13;;;;;;;;;;5055766;28;20124;-61
2021/06/02 00:32:58;;;;;;;6.75;5.43;;;;;;;;;;5074225;28;20021;-61
2021/06/02 00:35:25;;;;;;;6.38;5.03;;;;;;;;;;5074042;28;20107;-61
2021/06/02 00:37:51;;;;;;;6.35;4.95;;;;;;;;;;5072505;28;20059;-58
2021/06/02 00:40:36;;;;;;;8.85;5.07;;;;;;;;;;5055996;28;20024;-59
2021/06/02 00:43:02;;;;;;;6.93;5.28;;;;;;;;;;5065932;28;20052;-59
2021/06/02 00:45:30;;;;;;;7.13;5.57;;;;;;;;;;5073951;28;20036;-61
2021/06/02 00:47:56;;;;;;;7.47;4.47;;;;;;;;;;5056230;28;20027;-61
2021/06/02 00:50:22;;;;;;;5.55;5.00;;;;;;;;;;5073708;28;20100;-60
2021/06/02 00:52:47;;;;;;;7.57;5.05;;;;;;;;;;5073772;28;20124;-60
2021/06/02 00:55:13;;;;;;;4.88;4.40;;;;;;;;;;5073933;28;20024;-60
2021/06/02 00:57:44;;;;;;;5.47;4.97;;;;;;;;;;5073681;28;20033;-58
2021/06/02 01:00:10;;;;;;;10.23;6.70;;;;;;;;;;5073783;28;20075;-58
2021/06/02 01:02:36;;;;;;;11.25;5.65;;;;;;;;;;5073470;28;20467;-58
2021/06/02 01:05:03;;;;;;;8.75;5.68;;;;;;;;;;5073511;28;20051;-58
2021/06/02 01:07:28;;;;;;;17.70;8.55;;;;;;;;;;5073639;28;20082;-58
2021/06/02 01:09:58;;;;;;;6.25;5.63;;;;;;;;;;5073655;28;20104;-58
2021/06/02 01:12:25;;;;;;;9.55;6.60;;;;;;;;;;5073569;28;20042;-58
2021/06/02 01:14:51;;;;;;;24.42;12.80;;;;;;;;;;5073344;28;20467;-58
2021/06/02 01:17:27;;;;;;;14.75;7.55;;;;;;;;;;5073427;28;20023;-58
2021/06/02 01:19:54;;;;;;;23.05;12.93;;;;;;;;;;5073230;28;20551;-57
2021/06/02 01:22:20;;;;;;;10.82;6.65;;;;;;;;;;5073406;28;20340;-58
2021/06/02 01:24:46;;;;;;;13.85;7.55;;;;;;;;;;5073781;28;20027;-57
2021/06/02 01:27:12;;;;;;;10.52;6.53;;;;;;;;;;5073399;28;20446;-56
2021/06/02 01:29:39;;;;;;;10.43;6.65;;;;;;;;;;5073200;28;20044;-58
2021/06/02 01:32:10;;;;;;;19.83;10.20;;;;;;;;;;5073007;28;20078;-58
2021/06/02 01:34:56;;;;;;;27.08;11.63;;;;;;;;;;5072835;28;20467;-58
2021/06/02 01:37:40;;;;;;;11.45;7.20;;;;;;;;;;5051203;28;20463;-58
2021/06/02 01:40:23;;;;;;;14.60;7.65;;;;;;;;;;5073374;28;20024;-58
2021/06/02 01:42:55;;;;;;;12.75;7.63;;;;;;;;;;5076546;28;20060;-58
2021/06/02 01:45:42;;;;;;;5.60;4.72;;;;;;;;;;5077272;28;20063;-58
2021/06/02 01:48:11;;;;;;;6.28;4.38;;;;;;;;;;5077234;28;20031;-58
2021/06/02 01:50:36;;;;;;;4.93;4.10;;;;;;;;;;5077100;28;20094;-58
2021/06/02 01:53:20;;;;;;;4.45;4.05;;;;;;;;;;5077164;28;20064;-58
2021/06/02 01:56:04;;;;;;;6.70;4.47;;;;;;;;;;5077041;28;20482;-58
2021/06/02 01:58:45;;;;;;;5.50;4.30;;;;;;;;;;5076895;28;20443;-58
2021/06/02 02:01:23;;;;;;;6.30;4.43;;;;;;;;;;5076939;28;20025;-58
2021/06/02 02:04:09;;;;;;;5.40;4.30;;;;;;;;;;5076922;28;20043;-58
2021/06/02 02:06:53;;;;;;;5.10;3.90;;;;;;;;;;5077042;28;20119;-58
2021/06/02 02:09:24;;;;;;;5.03;4.40;;;;;;;;;;5076766;28;20032;-58
2021/06/02 02:11:50;;;;;;;5.15;4.65;;;;;;;;;;5076663;28;20028;-58
2021/06/02 02:14:31;;;;;;;7.20;5.30;;;;;;;;;;5076769;28;20012;-58
2021/06/02 02:17:09;;;;;;;5.25;4.50;;;;;;;;;;5076441;28;20478;-58
2021/06/02 02:19:37;;;;;;;5.22;4.72;;;;;;;;;;5076345;28;20474;-58
2021/06/02 02:22:03;;;;;;;5.05;4.55;;;;;;;;;;5076402;28;20021;-58
2021/06/02 02:24:46;;;;;;;9.65;5.63;;;;;;;;;;5076325;28;20382;-57
2021/06/02 02:27:24;;;;;;;8.15;4.50;;;;;;;;;;5076373;28;20029;-58
2021/06/02 02:29:58;;;;;;;4.13;3.72;;;;;;;;;;5058378;28;20402;-58
2021/06/02 02:32:36;;;;;;;6.60;4.30;;;;;;;;;;5076140;28;20119;-58
2021/06/02 02:35:22;;;;;;;4.03;3.72;;;;;;;;;;5076298;28;20016;-58
2021/06/02 02:37:58;;;;;;;5.05;4.20;;;;;;;;;;5054331;28;20040;-58
2021/06/02 02:40:30;;;;;;;7.35;4.40;;;;;;;;;;5076048;28;20021;-58
2021/06/02 02:43:00;;;;;;;4.65;4.20;;;;;;;;;;5075824;28;20479;-58
2021/06/02 02:45:33;;;;;;;4.60;4.20;;;;;;;;;;5075925;28;20051;-58
2021/06/02 02:48:19;;;;;;;5.57;5.07;;;;;;;;;;5076149;28;20028;-58
2021/06/02 02:51:03;;;;;;;7.75;4.53;;;;;;;;;;5076089;28;20056;-58
2021/06/02 02:53:39;;;;;;;5.95;4.50;;;;;;;;;;5075422;28;20410;-57
2021/06/02 02:56:10;;;;;;;5.63;4.20;;;;;;;;;;5075828;28;20024;-60
2021/06/02 02:58:59;;;;;;;4.32;3.92;;;;;;;;;;5075857;28;20463;-61
2021/06/02 03:01:28;;;;;;;7.32;4.38;;;;;;;;;;5075675;28;20028;-61
2021/06/02 03:04:03;;;;;;;4.85;4.45;;;;;;;;;;5075744;28;20107;-58
2021/06/02 03:06:38;;;;;;;5.80;4.55;;;;;;;;;;5076262;28;20033;-57
2021/06/02 03:09:22;;;;;;;4.50;4.10;;;;;;;;;;5075852;28;20538;-58
2021/06/02 03:12:05;;;;;;;5.03;4.13;;;;;;;;;;5057806;28;20032;-57
2021/06/02 03:14:44;;;;;;;4.60;4.18;;;;;;;;;;5075547;28;20048;-57
2021/06/02 03:17:29;;;;;;;5.50;4.03;;;;;;;;;;5075689;28;20033;-60
2021/06/02 03:20:14;;;;;;;4.70;4.00;;;;;;;;;;5075443;28;20056;-61
2021/06/02 03:22:41;;;;;;;5.32;4.07;;;;;;;;;;5075123;28;20037;-60
2021/06/02 03:25:10;;;;;;;4.38;4.07;;;;;;;;;;5075357;28;20024;-61
2021/06/02 03:27:47;;;;;;;5.65;4.63;;;;;;;;;;5075491;28;20039;-60
2021/06/02 03:30:22;;;;;;;4.57;4.18;;;;;;;;;;5075249;28;20033;-61
2021/06/02 03:33:04;;;;;;;4.75;4.35;;;;;;;;;;5075174;28;20028;-61
2021/06/02 03:35:48;;;;;;;5.72;4.47;;;;;;;;;;5075104;28;20107;-58
2021/06/02 03:38:29;;;;;;;6.13;4.55;;;;;;;;;;5075048;28;20535;-58
2021/06/02 03:41:03;;;;;;;5.00;4.55;;;;;;;;;;5074588;28;20395;-59
2021/06/02 03:43:33;;;;;;;6.95;4.20;;;;;;;;;;5075209;28;20037;-58
2021/06/02 03:46:31;;;;;;;4.50;4.10;;;;;;;;;;5075104;28;20506;-58
2021/06/02 03:49:12;;;;;;;6.30;4.07;;;;;;;;;;5051831;28;20132;-58
2021/06/02 03:51:37;;;;;;;5.13;4.63;;;;;;;;;;5074826;28;20029;-59
2021/06/02 03:54:21;;;;;;;4.60;4.07;;;;;;;;;;5074806;28;20363;-58
2021/06/02 03:56:53;;;;;;;4.55;3.80;;;;;;;;;;5074625;28;20032;-61
2021/06/02 03:59:31;;;;;;;4.07;3.70;;;;;;;;;;5074773;28;20052;-61
2021/06/02 04:02:08;;;;;;;3.75;3.45;;;;;;;;;;5074734;28;20398;-61
2021/06/02 04:04:37;;;;;;;4.25;3.85;;;;;;;;;;5056070;28;20051;-60
2021/06/02 04:07:18;;;;;;;3.97;3.60;;;;;;;;;;5073275;28;20170;-61
2021/06/02 04:10:00;;;;;;;4.50;3.70;;;;;;;;;;5074408;28;20033;-60
2021/06/02 04:12:33;;;;;;;4.28;3.80;;;;;;;;;;5074390;28;20029;-60
2021/06/02 04:14:59;;;;;;;3.97;3.58;;;;;;;;;;5074097;28;20052;-59
2021/06/02 04:17:25;;;;;;;3.60;3.30;;;;;;;;;;5074321;28;20048;-59
2021/06/02 04:19:51;;;;;;;5.43;3.33;;;;;;;;;;5074333;28;20032;-58
2021/06/02 04:22:21;;;;;;;3.80;3.50;;;;;;;;;;5074403;28;20029;-58
2021/06/02 04:24:47;;;;;;;4.10;3.33;;;;;;;;;;5074412;28;20039;-58
2021/06/02 04:27:14;;;;;;;3.50;3.20;;;;;;;;;;5074256;28;20020;-60
2021/06/02 04:29:42;;;;;;;4.70;3.35;;;;;;;;;;5074209;28;20024;-61
2021/06/02 04:32:09;;;;;;;3.97;3.47;;;;;;;;;;5073607;28;20016;-60
2021/06/02 04:34:36;;;;;;;4.47;3.33;;;;;;;;;;5073681;28;20032;-60
2021/06/02 04:37:03;;;;;;;6.25;3.67;;;;;;;;;;5055978;28;20078;-60
2021/06/02 04:39:30;;;;;;;5.80;3.33;;;;;;;;;;5073713;28;20028;-61
2021/06/02 04:41:57;;;;;;;7.53;3.47;;;;;;;;;;5070594;28;20502;-61
2021/06/02 04:44:23;;;;;;;4.38;3.28;;;;;;;;;;5073917;28;20090;-61
2021/06/02 04:46:49;;;;;;;4.70;3.50;;;;;;;;;;5073603;28;20128;-61
2021/06/02 04:49:15;;;;;;;5.70;3.35;;;;;;;;;;5073614;28;20095;-61
2021/06/02 04:52:05;;;;;;;5.30;3.35;;;;;;;;;;5073076;28;20016;-60
2021/06/02 04:54:30;;;;;;;4.68;3.60;;;;;;;;;;5073831;28;20086;-61
2021/06/02 04:57:14;;;;;;;5.03;3.15;;;;;;;;;;5073851;28;20462;-61
2021/06/02 04:59:39;;;;;;;5.45;3.47;;;;;;;;;;5073686;28;20055;-60
2021/06/02 05:02:11;;;;;;;5.50;3.28;;;;;;;;;;5055494;28;20025;-61
2021/06/02 05:04:39;;;;;;;3.95;3.03;;;;;;;;;;5073418;28;20474;-61
2021/06/02 05:07:14;;;;;;;5.15;3.30;;;;;;;;;;5073672;28;20066;-61
2021/06/02 05:09:40;;;;;;;5.47;3.80;;;;;;;;;;5073496;28;20060;-61
2021/06/02 05:12:17;;;;;;;6.32;3.25;;;;;;;;;;5073410;28;20055;-61
2021/06/02 05:14:52;;;;;;;3.88;3.10;;;;;;;;;;5073401;28;20016;-61
2021/06/02 05:17:32;;;;;;;3.38;3.17;;;;;;;;;;5073477;28;20032;-61
2021/06/02 05:20:06;;;;;;;3.47;3.17;;;;;;;;;;5073697;28;20020;-61
2021/06/02 05:23:03;;;;;;;6.03;3.97;;;;;;;;;;5073101;28;20059;-61
2021/06/02 05:25:44;;;;;;;3.53;3.22;;;;;;;;;;5050036;28;20138;-61
2021/06/02 05:28:28;;;;;;;4.22;3.92;;;;;;;;;;5067121;28;20085;-61
2021/06/02 05:31:13;;;;;;;4.20;3.80;;;;;;;;;;5075285;28;20391;-61
2021/06/02 05:33:57;;;;;;;4.50;3.72;;;;;;;;;;5095865;28;20072;-61
2021/06/02 05:36:42;;;;;;;10.70;4.60;;;;;;;;;;5093626;28;20366;-61
2021/06/02 05:39:12;;;;;;;5.03;4.00;;;;;;;;;;5093582;28;20110;-61
2021/06/02 05:41:51;;;;;;;8.38;3.83;;;;;;;;;;5092999;28;20056;-61
2021/06/02 05:44:32;;;;;;;3.45;3.25;;;;;;;;;;5093577;28;20060;-61
2021/06/02 05:47:16;;;;;;;4.88;3.42;;;;;;;;;;5093550;28;20514;-61
2021/06/02 05:49:54;;;;;;;3.55;3.05;;;;;;;;;;5093520;28;20024;-61
2021/06/02 05:52:38;;;;;;;3.50;3.20;;;;;;;;;;5093214;28;20119;-60
2021/06/02 05:55:23;;;;;;;3.80;3.03;;;;;;;;;;5093380;28;20032;-61
2021/06/02 05:57:51;;;;;;;2.90;2.70;;;;;;;;;;5093319;28;20051;-61
2021/06/02 06:00:29;;;;;;;3.05;2.85;;;;;;;;;;5093259;28;20035;-61
2021/06/02 06:03:01;;;;;;;2.53;2.42;;;;;;;;;;5093118;28;20461;-60
2021/06/02 06:05:26;;;;;;;2.95;2.55;;;;;;;;;;5093390;28;20029;-60
2021/06/02 06:08:10;;;;;;;4.47;2.50;;;;;;;;;;5092982;28;20020;-60
2021/06/02 06:10:39;;;;;;;4.50;2.65;;;;;;;;;;5092978;28;20024;-60
2021/06/02 06:13:16;;;;;;;3.20;2.90;;;;;;;;;;5092987;28;20084;-60
2021/06/02 06:16:05;;;;;;;4.32;3.03;;;;;;;;;;5093267;28;20035;-60
2021/06/02 06:18:33;;;;;;;2.30;2.20;;;;;;;;;;5093032;28;20079;-61
2021/06/02 06:20:58;;;;;;;2.50;2.30;;;;;;;;;;5093116;28;20074;-61
2021/06/02 06:23:39;;;;;;;2.50;2.30;;;;;;;;;;5093082;28;20059;-61
2021/06/02 06:26:05;;;;;;;3.47;2.45;;;;;;;;;;5093002;28;20036;-61
2021/06/02 06:28:33;;;;;;;2.42;2.22;;;;;;;;;;5095930;28;20035;-60
2021/06/02 06:30:59;;;;;;;4.53;2.22;;;;;;;;;;5096708;28;20035;-61
2021/06/02 06:33:28;;;;;;;4.28;2.25;;;;;;;;;;5096262;28;20020;-60
2021/06/02 06:35:54;;;;;;;3.55;2.25;;;;;;;;;;5096454;28;20087;-61
2021/06/02 06:38:21;;;;;;;2.10;1.95;;;;;;;;;;5096316;28;20377;-61
2021/06/02 06:40:52;;;;;;;3.28;2.00;;;;;;;;;;5096257;28;20378;-61
2021/06/02 06:43:17;;;;;;;;;;;;;;;;;;5095581;28;20047;-61
2021/06/02 06:45:43;;;;;;;2.65;1.92;;;;;;;;;;5093935;28;20007;-61
2021/06/02 06:48:11;;;;;;;1.98;1.85;;;;;;;;;;5093980;28;20108;-61
2021/06/02 06:50:37;;;;;;;3.08;1.50;;;;;;;;;;5093794;28;20027;-61
2021/06/02 06:53:03;;;;;;;4.28;1.90;;;;;;;;;;5093879;28;20028;-61
2021/06/02 06:55:29;;;;;;;1.67;1.58;;;;;;;;;;5094117;28;20389;-61
2021/06/02 06:57:55;;;;;;;1.90;1.25;;;;;;;;;;5076562;28;20028;-61
2021/06/02 07:00:21;;;;;;;4.10;1.50;;;;;;;;;;5095693;28;20024;-61
2021/06/02 07:02:46;;;;;;;5.60;1.90;;;;;;;;;;5095883;28;20030;-61
2021/06/02 07:05:13;;;;;;;5.25;1.73;;;;;;;;;;5095274;28;20016;-61
2021/06/02 07:07:42;;;;;;;3.78;1.58;;;;;;;;;;5095788;28;20082;-61
2021/06/02 07:10:08;;;;;;;1.20;1.10;;;;;;;;;;5095798;28;20073;-61
2021/06/02 07:12:37;;;;;;;6.18;1.50;;;;;;;;;;5095013;28;20474;-61
2021/06/02 07:15:06;;;;;;;3.47;1.50;;;;;;;;;;5095423;28;20584;-61
2021/06/02 07:17:32;;;;;;;2.53;1.50;;;;;;;;;;5095786;28;20016;-60
2021/06/02 07:19:59;;;;;;;2.45;1.58;;;;;;;;;;5095821;28;20012;-61
2021/06/02 07:22:26;;;;;;;2.03;1.63;;;;;;;;;;5095398;28;20032;-61
2021/06/02 07:24:57;;;;;;;2.88;1.50;;;;;;;;;;5095476;28;20027;-61
2021/06/02 07:27:22;;;;;;;8.13;2.00;;;;;;;;;;5095461;28;20028;-61
2021/06/02 07:29:48;;;;;;;1.27;1.23;;;;;;;;;;5095716;28;20020;-61
2021/06/02 07:32:14;;;;;;;2.67;1.70;;;;;;;;;;5094726;28;20035;-61
2021/06/02 07:34:40;;;;;;;11.15;2.35;;;;;;;;;;5102886;28;20056;-61
2021/06/02 07:37:05;;;;;;;7.63;2.25;;;;;;;;;;5080761;28;20089;-61
2021/06/02 07:39:31;;;;;;;2.22;1.33;;;;;;;;;;5094073;28;20074;-61
2021/06/02 07:41:57;;;;;;;1.00;1.00;;;;;;;;;;5094625;28;20059;-61
2021/06/02 07:44:22;;;;;;;2.50;1.50;;;;;;;;;;5095004;28;20054;-60
2021/06/02 07:46:48;;;;;;;1.55;1.05;;;;;;;;;;5094846;28;20032;-60
2021/06/02 07:49:13;;;;;;;3.08;1.40;;;;;;;;;;5094764;28;20049;-61
2021/06/02 07:51:39;;;;;;;9.48;1.52;;;;;;;;;;5094913;28;20048;-61
2021/06/02 07:54:06;;;;;;;2.55;1.50;;;;;;;;;;5100059;28;20015;-61
2021/06/02 07:56:32;;;;;;;34.92;4.85;;;;;;;;;;5094128;28;20028;-57
2021/06/02 07:58:59;;;;;;;1.27;1.10;;;;;;;;;;5106606;28;20016;-58
2021/06/02 08:01:24;;;;;;;1.35;1.25;;;;;;;;;;5096887;28;20496;-57
2021/06/02 08:03:50;;;;;;;2.17;1.50;;;;;;;;;;5114973;28;20055;-57
2021/06/02 08:06:16;;;;;;;1.42;1.30;;;;;;;;;;5115187;28;20088;-57
2021/06/02 08:08:42;;;;;;;1.48;1.17;;;;;;;;;;5115054;28;20026;-57
2021/06/02 08:11:07;;;;;;;2.55;1.10;;;;;;;;;;5096306;28;20032;-57
2021/06/02 08:13:33;;;;;;;1.58;1.45;;;;;;;;;;5114661;28;20370;-57
2021/06/02 08:15:58;;;;;;;2.92;1.40;;;;;;;;;;5114850;28;20023;-58
2021/06/02 08:18:24;;;;;;;1.58;1.48;;;;;;;;;;5114890;28;20008;-58
2021/06/02 08:20:49;;;;;;;2.00;1.70;;;;;;;;;;5114382;28;20031;-61
2021/06/02 08:23:15;;;;;;;2.00;1.45;;;;;;;;;;5114587;28;20024;-61
2021/06/02 08:25:40;;;;;;;1.38;1.27;;;;;;;;;;5101369;28;20356;-60
2021/06/02 08:28:06;;;;;;;2.72;1.35;;;;;;;;;;5094234;28;20039;-61
2021/06/02 08:30:31;;;;;;;1.30;1.20;;;;;;;;;;5094040;28;20390;-60
2021/06/02 08:32:57;;;;;;;1.30;1.20;;;;;;;;;;5094301;28;20382;-60
2021/06/02 08:35:22;;;;;;;2.97;1.40;;;;;;;;;;5094478;28;20020;-61
2021/06/02 08:37:48;;;;;;;1.50;1.40;;;;;;;;;;5094375;28;20016;-61
2021/06/02 08:40:15;;;;;;;2.08;1.60;;;;;;;;;;5094184;28;20024;-61
2021/06/02 08:42:42;;;;;;;1.17;1.08;;;;;;;;;;5093289;28;20401;-61
2021/06/02 08:45:08;;;;;;;1.17;1.00;;;;;;;;;;5093997;28;20035;-60
2021/06/02 08:47:33;;;;;;;1.95;1.20;;;;;;;;;;5094377;28;20020;-61
2021/06/02 08:49:59;;;;;;;1.05;1.05;;;;;;;;;;5093691;28;20435;-61
2021/06/02 08:52:24;;;;;;;1.30;1.20;;;;;;;;;;5093882;28;20027;-61
2021/06/02 08:54:50;;;;;;;1.50;1.20;;;;;;;;;;5093809;28;20024;-62
2021/06/02 08:57:16;;;;;;;2.60;1.50;;;;;;;;;;5094196;28;20016;-61
2021/06/02 08:59:41;;;;;;;1.90;1.77;;;;;;;;;;5093938;28;20085;-61
2021/06/02 09:02:07;;;;;;;1.95;1.55;;;;;;;;;;5093947;28;20016;-61
2021/06/02 09:04:34;;;;;;;1.42;1.30;;;;;;;;;;5093690;28;20154;-61
2021/06/02 09:07:02;;;;;;;1.63;1.52;;;;;;;;;;5093753;28;20428;-61
2021/06/02 09:09:28;;;;;;;1.00;1.00;;;;;;;;;;5093820;28;20584;-61
2021/06/02 09:11:54;;;;;;;1.40;1.30;;;;;;;;;;5093521;28;20020;-61
2021/06/02 09:14:20;;;;;;;2.65;1.60;;;;;;;;;;5093770;28;20024;-61
2021/06/02 09:16:49;;;;;;;2.63;1.60;;;;;;;;;;5093573;28;20517;-60
2021/06/02 09:19:15;;;;;;;2.55;1.65;;;;;;;;;;5093755;28;20028;-61
2021/06/02 09:21:42;;;;;;;2.10;1.73;;;;;;;;;;5093554;28;20114;-60
2021/06/02 09:24:08;;;;;;;1.50;1.40;;;;;;;;;;5093866;28;20097;-59
2021/06/02 09:26:33;;;;;;;2.15;1.42;;;;;;;;;;5093677;28;20016;-58
2021/06/02 09:29:08;;;;;;;1.38;1.35;;;;;;;;;;5093439;28;20131;-62
2021/06/02 09:31:42;;;;;;;2.95;1.88;;;;;;;;;;5093322;28;20049;-62
2021/06/02 09:34:17;;;;;;;2.30;2.00;;;;;;;;;;5093464;28;20025;-61
2021/06/02 09:36:47;;;;;;;2.92;1.67;;;;;;;;;;5093489;28;20479;-61
2021/06/02 09:39:15;;;;;;;2.60;1.88;;;;;;;;;;5093473;28;20054;-62
2021/06/02 09:41:45;;;;;;;3.92;1.73;;;;;;;;;;5093081;28;20055;-62
2021/06/02 09:44:31;;;;;;;2.33;2.15;;;;;;;;;;5093571;28;20089;-62
2021/06/02 09:47:02;;;;;;;1.92;1.83;;;;;;;;;;5093799;28;20390;-62
2021/06/02 09:49:28;;;;;;;2.00;1.80;;;;;;;;;;5093345;28;20044;-62
2021/06/02 09:51:54;;;;;;;1.75;1.65;;;;;;;;;;5093174;28;20019;-62
2021/06/02 09:54:23;;;;;;;1.63;1.52;;;;;;;;;;5093395;28;20119;-62
2021/06/02 09:56:49;;;;;;;3.72;1.95;;;;;;;;;;5092948;28;20024;-62
2021/06/02 09:59:16;;;;;;;2.42;2.00;;;;;;;;;;5093462;28;20035;-62
2021/06/02 10:01:57;;;;;;;3.05;1.45;;;;;;;;;;5093125;28;20470;-62
2021/06/02 10:04:30;;;;;;;1.25;1.25;;;;;;;;;;5096885;28;20039;-62
2021/06/02 10:06:55;;;;;;;1.70;1.60;;;;;;;;;;5096898;28;20032;-62
2021/06/02 10:09:21;;;;;;;1.92;1.52;;;;;;;;;;5096955;28;20027;-62
2021/06/02 10:11:57;;;;;;;2.33;1.60;;;;;;;;;;5096985;28;20497;-62
2021/06/02 10:14:23;;;;;;;2.03;1.88;;;;;;;;;;5096861;28;20027;-62
2021/06/02 10:16:48;;;;;;;2.63;2.42;;;;;;;;;;5096799;28;20430;-61
2021/06/02 10:19:14;;;;;;;1.77;1.67;;;;;;;;;;5096627;28;20024;-61
2021/06/02 10:21:43;;;;;;;3.50;1.50;;;;;;;;;;5096741;28;20012;-62
2021/06/02 10:24:09;;;;;;;1.60;1.50;;;;;;;;;;5096800;28;20043;-62
2021/06/02 10:26:35;;;;;;;1.60;1.50;;;;;;;;;;5096628;28;20020;-61
2021/06/02 10:29:00;;;;;;;1.60;1.50;;;;;;;;;;5096421;28;20476;-61
2021/06/02 10:31:25;;;;;;;1.40;1.30;;;;;;;;;;5078151;28;20035;-62
2021/06/02 10:33:51;;;;;;;4.28;1.70;;;;;;;;;;5096225;28;20024;-61
2021/06/02 10:36:17;;;;;;;1.52;1.42;;;;;;;;;;5096229;28;20012;-62
2021/06/02 10:38:45;;;;;;;1.48;1.38;;;;;;;;;;5096156;28;20074;-61
2021/06/02 10:41:15;;;;;;;2.30;2.05;;;;;;;;;;5096241;28;20047;-62
2021/06/02 10:43:43;;;;;;;2.38;1.67;;;;;;;;;;5096098;28;20076;-62
2021/06/02 10:46:14;;;;;;;1.52;1.42;;;;;;;;;;5078262;28;20082;-62
2021/06/02 10:48:45;;;;;;;2.03;1.65;;;;;;;;;;5096207;28;20035;-61
2021/06/02 10:51:37;;;;;;;1.45;1.35;;;;;;;;;;5096118;28;20060;-61
2021/06/02 10:54:07;;;;;;;1.98;1.77;;;;;;;;;;5086973;28;20036;-61
2021/06/02 10:56:33;;;;;;;2.63;1.60;;;;;;;;;;5096516;28;20115;-61
2021/06/02 10:58:58;;;;;;;1.73;1.63;;;;;;;;;;5096104;28;20099;-62
2021/06/02 11:01:24;;;;;;;1.92;1.60;;;;;;;;;;5096053;28;20028;-61
2021/06/02 11:04:11;;;;;;;4.35;1.88;;;;;;;;;;5096097;28;20501;-61
2021/06/02 11:06:37;;;;;;;1.63;1.52;;;;;;;;;;5096017;28;20028;-61
2021/06/02 11:09:04;;;;;;;2.25;1.58;;;;;;;;;;5061315;28;20039;-62
2021/06/02 11:11:34;;;;;;;1.77;1.65;;;;;;;;;;5095700;28;20031;-61
2021/06/02 11:14:19;;;;;;;1.83;1.73;;;;;;;;;;5095629;28;20027;-61
2021/06/02 11:16:45;;;;;;;1.30;1.27;;;;;;;;;;5095738;28;20020;-62
2021/06/02 11:19:10;;;;;;;28.50;19.02;;;;;;;;;;5095821;28;20065;-62
2021/06/02 11:21:43;;;;;;;12.80;11.60;;;;;;;;;;5077556;28;20492;-62
2021/06/02 11:24:27;;;;;;;9.82;8.95;;;;;;;;;;5095832;28;20111;-62
2021/06/02 11:26:52;;;;;;;4.32;2.03;;;;;;;;;;5095710;28;20052;-62
2021/06/02 11:29:18;;;;;;;2.20;2.00;;;;;;;;;;5095606;28;20442;-62
2021/06/02 11:31:43;;;;;;;2.67;1.85;;;;;;;;;;5095242;28;20405;-62
2021/06/02 11:34:26;;;;;;;2.15;2.05;;;;;;;;;;5095559;28;20031;-62
2021/06/02 11:36:57;;;;;;;8.75;5.50;;;;;;;;;;5095405;28;20020;-62
2021/06/02 11:39:23;;;;;;;8.63;7.53;;;;;;;;;;5095121;28;20471;-62
2021/06/02 11:41:49;;;;;;;7.50;5.93;;;;;;;;;;5076586;28;20044;-63
2021/06/02 11:44:16;;;;;;;5.53;4.18;;;;;;;;;;5095207;28;20028;-62
2021/06/02 11:46:48;;;;;;;2.30;2.10;;;;;;;;;;5077018;28;20020;-62
2021/06/02 11:49:23;;;;;;;3.95;1.77;;;;;;;;;;5094683;28;20119;-62
2021/06/02 11:51:49;;;;;;;2.40;2.05;;;;;;;;;;5094782;28;20032;-62
2021/06/02 11:54:15;;;;;;;2.60;1.38;;;;;;;;;;5095022;28;20016;-62
2021/06/02 11:56:41;;;;;;;3.83;2.90;;;;;;;;;;5084886;28;20028;-62
2021/06/02 11:59:06;;;;;;;5.65;3.92;;;;;;;;;;5076294;28;20516;-62
2021/06/02 12:01:33;;;;;;;4.30;3.15;;;;;;;;;;5094689;28;20122;-62
2021/06/02 12:03:59;;;;;;;5.07;4.30;;;;;;;;;;5076806;28;20085;-62
2021/06/02 12:06:28;;;;;;;5.25;3.20;;;;;;;;;;5094897;28;20028;-64
2021/06/02 12:08:55;;;;;;;2.08;1.95;;;;;;;;;;5094725;28;20390;-64
2021/06/02 12:11:20;;;;;;;6.95;3.83;;;;;;;;;;5094579;28;20027;-64
2021/06/02 12:13:46;;;;;;;3.95;3.60;;;;;;;;;;5094714;28;20025;-63
2021/06/02 12:16:14;;;;;;;3.35;2.00;;;;;;;;;;5094702;28;20107;-71
2021/06/02 12:18:44;;;;;;;4.82;3.10;;;;;;;;;;5094584;28;20031;-65
2021/06/02 12:21:11;;;;;;;2.10;1.90;;;;;;;;;;5094341;28;20079;-62
2021/06/02 12:23:46;;;;;;;3.83;2.83;;;;;;;;;;5094633;28;20378;-62
2021/06/02 12:26:22;;;;;;;2.80;2.00;;;;;;;;;;5093920;28;20474;-60
2021/06/02 12:28:47;;;;;;;2.55;1.85;;;;;;;;;;5094606;28;20032;-60
2021/06/02 12:31:29;;;;;;;3.05;2.20;;;;;;;;;;5093642;28;20362;-60
2021/06/02 12:34:03;;;;;;;1.63;1.50;;;;;;;;;;5075491;28;20035;-63
2021/06/02 12:36:28;;;;;;;2.00;1.90;;;;;;;;;;5094209;28;20056;-63
2021/06/02 12:38:54;;;;;;;3.00;1.83;;;;;;;;;;5094080;28;20056;-62
2021/06/02 12:41:26;;;;;;;3.08;1.88;;;;;;;;;;5093543;28;20043;-63
2021/06/02 12:43:51;;;;;;;3.05;1.63;;;;;;;;;;5093775;28;20028;-63
2021/06/02 12:46:17;;;;;;;1.73;1.63;;;;;;;;;;5092997;28;20369;-62
2021/06/02 12:48:43;;;;;;;2.20;2.00;;;;;;;;;;5075248;28;20032;-63
2021/06/02 12:51:17;;;;;;;2.10;1.90;;;;;;;;;;5093537;28;20020;-62
2021/06/02 12:53:47;;;;;;;1.63;1.60;;;;;;;;;;5093329;28;20106;-63
2021/06/02 12:56:14;;;;;;;2.92;1.42;;;;;;;;;;5093613;28;20016;-62
2021/06/02 12:58:40;;;;;;;3.22;1.50;;;;;;;;;;5075785;28;20039;-63
2021/06/02 13:01:06;;;;;;;2.00;1.60;;;;;;;;;;5094077;28;20024;-63
2021/06/02 13:03:32;;;;;;;1.83;1.55;;;;;;;;;;5093744;28;20024;-63
2021/06/02 13:05:58;;;;;;;1.85;1.67;;;;;;;;;;5093702;28;20020;-64
2021/06/02 13:08:24;;;;;;;1.60;1.50;;;;;;;;;;5093739;28;20085;-67
2021/06/02 13:10:49;;;;;;;2.58;2.15;;;;;;;;;;5093232;28;20054;-67
2021/06/02 13:13:16;;;;;;;1.80;1.70;;;;;;;;;;5093813;28;20474;-68
2021/06/02 13:15:46;;;;;;;2.88;1.83;;;;;;;;;;5093674;28;20046;-68
2021/06/02 13:18:23;;;;;;;2.75;1.73;;;;;;;;;;5075768;28;20103;-67
2021/06/02 13:20:49;;;;;;;4.10;1.77;;;;;;;;;;5093450;28;20474;-67
2021/06/02 13:23:33;;;;;;;3.88;1.55;;;;;;;;;;5093515;28;20022;-67
2021/06/02 13:25:58;;;;;;;2.33;1.30;;;;;;;;;;5093529;28;20028;-67
2021/06/02 13:28:24;;;;;;;4.68;2.22;;;;;;;;;;5093085;28;20366;-67
2021/06/02 13:30:53;;;;;;;3.03;1.75;;;;;;;;;;5093364;28;20063;-66
2021/06/02 13:33:19;;;;;;;3.92;2.05;;;;;;;;;;5093110;28;20081;-66
2021/06/02 13:35:44;;;;;;;1.63;1.50;;;;;;;;;;5074489;28;20032;-66
2021/06/02 13:38:10;;;;;;;1.80;1.50;;;;;;;;;;5096441;28;20026;-67
2021/06/02 13:40:36;;;;;;;1.77;1.50;;;;;;;;;;5096754;28;20016;-66
2021/06/02 13:43:09;;;;;;;2.67;1.50;;;;;;;;;;5096441;28;20048;-66
2021/06/02 13:45:46;;;;;;;3.83;1.70;;;;;;;;;;5096334;28;20043;-66
2021/06/02 13:48:26;;;;;;;3.25;1.80;;;;;;;;;;5096207;28;20024;-66
2021/06/02 13:50:52;;;;;;;;;;;;;;;;;;5097071;28;20035;-66
2021/06/02 13:53:17;;;;;;;5.15;1.77;;;;;;;;;;5097070;28;20295;-66
2021/06/02 13:55:53;;;;;;;3.63;1.80;;;;;;;;;;5097015;28;20024;-66
2021/06/02 13:58:19;;;;;;;5.32;1.55;;;;;;;;;;5097010;28;20486;-66
2021/06/02 14:00:44;;;;;;;1.60;1.50;;;;;;;;;;5096861;28;20032;-66
2021/06/02 14:03:10;;;;;;;1.25;1.20;;;;;;;;;;5096862;28;20478;-66
2021/06/02 14:05:35;;;;;;;3.75;1.55;;;;;;;;;;5097069;28;20027;-66
2021/06/02 14:08:00;;;;;;;6.32;1.52;;;;;;;;;;5096921;28;20043;-66
2021/06/02 14:10:26;;;;;;;10.38;2.35;;;;;;;;;;5096840;28;20020;-66
2021/06/02 14:12:51;;;;;;;1.50;1.40;;;;;;;;;;5096801;28;20154;-66
2021/06/02 14:15:19;;;;;;;1.83;1.60;;;;;;;;;;5096588;28;20348;-66
2021/06/02 14:17:45;;;;;;;6.70;1.85;;;;;;;;;;5096663;28;20028;-66
2021/06/02 14:20:12;;;;;;;1.52;1.42;;;;;;;;;;5078602;28;20101;-66
2021/06/02 14:22:38;;;;;;;1.50;1.40;;;;;;;;;;5096385;28;20036;-66
2021/06/02 14:25:03;;;;;;;4.07;1.38;;;;;;;;;;5096583;28;20032;-66
2021/06/02 14:27:29;;;;;;;2.17;1.50;;;;;;;;;;5096525;28;20042;-66
2021/06/02 14:29:54;;;;;;;3.58;1.50;;;;;;;;;;5096414;28;20027;-66
2021/06/02 14:32:21;;;;;;;1.70;1.30;;;;;;;;;;5096217;28;20081;-66
2021/06/02 14:34:47;;;;;;;2.65;1.40;;;;;;;;;;5096307;28;20019;-66
2021/06/02 14:37:12;;;;;;;1.60;1.50;;;;;;;;;;5096248;28;20398;-66
2021/06/02 14:39:37;;;;;;;2.60;1.60;;;;;;;;;;5096286;28;20027;-66
2021/06/02 14:42:04;;;;;;;1.50;1.40;;;;;;;;;;5095753;28;20131;-66
2021/06/02 14:44:29;;;;;;;2.22;1.52;;;;;;;;;;5096390;28;20097;-66
2021/06/02 14:46:55;;;;;;;3.47;1.60;;;;;;;;;;5096002;28;20107;-66
2021/06/02 14:49:20;;;;;;;2.20;1.55;;;;;;;;;;5095284;28;20055;-66
2021/06/02 14:51:47;;;;;;;2.47;1.35;;;;;;;;;;5095947;28;20009;-66
2021/06/02 14:54:12;;;;;;;1.52;1.40;;;;;;;;;;5077955;28;20028;-66
2021/06/02 14:56:38;;;;;;;3.95;1.50;;;;;;;;;;5095903;28;20031;-66
2021/06/02 14:59:03;;;;;;;1.70;1.60;;;;;;;;;;5095888;28;20030;-66
2021/06/02 15:01:31;;;;;;;4.97;1.75;;;;;;;;;;5095901;28;20107;-66